createdAt,value
2022-09-17T00:01:50.860Z,0.80
2022-09-17T00:04:19.355Z,1.00
2022-09-17T00:06:47.870Z,1.10
2022-09-17T00:09:16.957Z,1.20
2022-09-17T00:11:45.417Z,1.13
2022-09-17T00:14:18.318Z,1.00
2022-09-17T00:16:49.155Z,0.90
2022-09-17T00:19:20.427Z,0.90
2022-09-17T00:21:49.011Z,1.10
2022-09-17T00:24:18.529Z,1.03
2022-09-17T00:26:46.811Z,1.20
2022-09-17T00:29:17.037Z,1.20
2022-09-17T00:31:45.539Z,1.10
2022-09-17T00:34:13.936Z,1.13
2022-09-17T00:36:42.555Z,1.10
2022-09-17T00:39:12.795Z,1.43
2022-09-17T00:41:41.276Z,1.30
2022-09-17T00:44:41.984Z,1.20
2022-09-17T00:47:17.106Z,1.00
2022-09-17T00:49:46.626Z,1.13
2022-09-17T00:52:18.462Z,1.20
2022-09-17T00:54:53.996Z,1.20
2022-09-17T00:57:22.777Z,1.20
2022-09-17T00:59:52.797Z,1.30
2022-09-17T01:02:21.893Z,1.30
2022-09-17T01:04:51.277Z,1.40
2022-09-17T01:07:36.716Z,1.33
2022-09-17T01:10:15.289Z,1.20
2022-09-17T01:12:59.121Z,1.20
2022-09-17T01:15:36.088Z,1.60
2022-09-17T01:18:23.286Z,1.30
2022-09-17T01:21:22.007Z,1.50
2022-09-17T01:24:17.830Z,1.40
2022-09-17T01:27:05.513Z,1.40
2022-09-17T01:29:53.540Z,1.57
2022-09-17T01:32:28.446Z,1.73
2022-09-17T01:35:03.024Z,1.40
2022-09-17T01:37:35.006Z,1.50
2022-09-17T01:40:09.168Z,1.80
2022-09-17T01:42:43.058Z,2.23
2022-09-17T01:45:18.643Z,1.90
2022-09-17T01:47:53.083Z,1.60
2022-09-17T01:50:26.568Z,1.70
2022-09-17T01:52:57.782Z,1.77
2022-09-17T01:55:31.255Z,1.87
2022-09-17T01:58:04.191Z,2.00
2022-09-17T02:00:32.580Z,2.30
2022-09-17T02:03:06.772Z,2.20
2022-09-17T02:05:40.654Z,2.50
2022-09-17T02:08:13.426Z,2.43
2022-09-17T02:10:56.983Z,2.60
2022-09-17T02:13:28.763Z,2.40
2022-09-17T02:16:02.276Z,2.37
2022-09-17T02:18:54.058Z,2.67
2022-09-17T02:21:29.928Z,2.50
2022-09-17T02:24:05.546Z,2.77
2022-09-17T02:26:36.394Z,2.53
2022-09-17T02:29:11.070Z,3.07
2022-09-17T02:31:42.488Z,2.80
2022-09-17T02:34:14.130Z,2.80
2022-09-17T02:36:42.716Z,2.83
2022-09-17T02:39:11.035Z,3.00
2022-09-17T02:41:51.375Z,2.87
2022-09-17T02:44:27.371Z,2.53
2022-09-17T02:47:11.650Z,2.83
2022-09-17T02:50:03.649Z,2.90
2022-09-17T02:52:39.377Z,2.77
2022-09-17T02:55:19.500Z,2.60
2022-09-17T02:57:54.644Z,2.47
2022-09-17T03:00:25.047Z,2.70
2022-09-17T03:03:00.711Z,2.80
2022-09-17T03:05:31.455Z,2.40
2022-09-17T03:08:01.192Z,2.40
2022-09-17T03:10:33.361Z,2.40
2022-09-17T03:13:01.517Z,2.57
2022-09-17T03:15:29.615Z,2.50
2022-09-17T03:17:57.959Z,2.70
2022-09-17T03:20:26.328Z,2.77
2022-09-17T03:22:55.814Z,2.60
2022-09-17T03:25:24.072Z,2.80
2022-09-17T03:27:52.488Z,2.50
2022-09-17T03:30:20.722Z,2.87
2022-09-17T03:32:48.939Z,3.10
2022-09-17T03:35:17.203Z,2.80
2022-09-17T03:37:47.440Z,2.90
2022-09-17T03:40:17.328Z,2.57
2022-09-17T03:42:45.625Z,2.33
2022-09-17T03:45:13.986Z,2.00
2022-09-17T03:47:42.165Z,2.20
2022-09-17T03:50:10.923Z,2.30
2022-09-17T03:52:39.132Z,2.40
2022-09-17T03:55:08.451Z,2.40
2022-09-17T03:57:37.996Z,2.17
2022-09-17T04:00:07.826Z,2.17
2022-09-17T04:02:39.924Z,2.20
2022-09-17T04:05:10.230Z,2.13
2022-09-17T04:07:38.571Z,2.20
2022-09-17T04:10:07.774Z,2.50
2022-09-17T04:12:37.622Z,2.60
2022-09-17T04:15:06.565Z,2.63
2022-09-17T04:17:34.716Z,2.40
2022-09-17T04:20:03.836Z,2.50
2022-09-17T04:22:32.108Z,2.70
2022-09-17T04:25:00.237Z,2.90
2022-09-17T04:27:28.494Z,2.80
2022-09-17T04:29:58.150Z,2.70
2022-09-17T04:32:26.523Z,2.90
2022-09-17T04:34:54.827Z,3.10
2022-09-17T04:37:23.844Z,2.73
2022-09-17T04:39:52.021Z,2.70
2022-09-17T04:42:20.213Z,3.10
2022-09-17T04:44:48.485Z,2.77
2022-09-17T04:47:18.002Z,2.70
2022-09-17T04:49:46.129Z,2.50
2022-09-17T04:52:14.983Z,2.40
2022-09-17T04:54:43.359Z,2.50
2022-09-17T04:57:11.686Z,2.47
2022-09-17T04:59:40.016Z,2.60
2022-09-17T05:02:08.411Z,2.57
2022-09-17T05:04:37.970Z,2.40
2022-09-17T05:07:08.395Z,2.47
2022-09-17T05:09:39.073Z,2.40
2022-09-17T05:12:07.524Z,2.40
2022-09-17T05:14:35.772Z,2.40
2022-09-17T05:17:03.922Z,1.57
2022-09-17T05:19:32.073Z,2.20
2022-09-17T19:56:11.644Z,1.80
2022-09-17T19:58:40.383Z,1.53
2022-09-17T20:01:08.688Z,1.40
2022-09-17T20:03:38.713Z,1.53
2022-09-17T20:06:10.294Z,1.60
2022-09-17T20:08:46.793Z,1.50
2022-09-17T20:11:18.087Z,1.87
2022-09-17T20:13:46.345Z,2.10
2022-09-17T20:16:17.277Z,2.10
2022-09-17T20:18:46.305Z,1.80
2022-09-17T20:21:17.095Z,1.57
2022-09-17T20:23:45.610Z,1.70
2022-09-17T20:26:17.789Z,1.77
2022-09-17T20:28:46.581Z,1.70
2022-09-17T20:31:16.783Z,1.83
2022-09-17T20:33:45.327Z,1.70
2022-09-17T20:36:15.221Z,1.70
2022-09-17T20:39:10.735Z,1.90
2022-09-17T20:41:34.943Z,1.83
2022-09-17T20:44:03.631Z,1.90
2022-09-17T20:46:31.799Z,1.90
2022-09-17T20:49:00.183Z,2.20
2022-09-17T20:51:30.621Z,2.60
2022-09-17T20:53:58.913Z,1.90
2022-09-17T20:56:29.639Z,1.87
2022-09-17T20:59:08.539Z,1.90
2022-09-17T21:01:38.105Z,2.00
2022-09-17T21:04:08.632Z,2.10
2022-09-17T21:06:38.621Z,2.47
2022-09-17T21:09:07.646Z,1.73
2022-09-17T21:11:36.148Z,2.50
2022-09-17T21:14:06.747Z,2.03
2022-09-17T21:16:35.014Z,2.40
2022-09-17T21:19:05.466Z,2.00
2022-09-17T21:21:34.484Z,1.87
2022-09-17T21:24:03.720Z,1.87
2022-09-17T21:26:31.957Z,1.80
2022-09-17T21:29:00.668Z,1.90
2022-09-17T21:31:33.094Z,2.50
2022-09-17T21:34:03.365Z,2.07
2022-09-17T21:36:33.532Z,1.83
2022-09-17T21:39:03.591Z,2.10
2022-09-17T21:41:31.965Z,1.90
2022-09-17T21:44:00.690Z,2.57
2022-09-17T21:46:34.557Z,1.50
2022-09-17T21:49:04.582Z,1.47
2022-09-17T21:51:36.477Z,1.77
2022-09-17T21:54:08.064Z,1.67
2022-09-17T21:56:37.042Z,1.60
2022-09-17T21:59:06.992Z,1.60
2022-09-17T22:01:40.123Z,1.90
2022-09-17T22:04:10.339Z,1.57
2022-09-17T22:06:39.097Z,1.93
2022-09-17T22:09:08.813Z,1.47
2022-09-17T22:11:38.450Z,1.77
2022-09-17T22:14:10.878Z,1.53
2022-09-17T22:16:41.936Z,1.53
2022-09-17T22:19:11.497Z,1.50
2022-09-17T22:21:42.552Z,1.57
2022-09-17T22:24:12.185Z,2.07
2022-09-17T22:26:43.611Z,1.60
2022-09-17T22:29:14.069Z,1.97
2022-09-17T22:31:44.584Z,1.47
2022-09-17T22:34:15.767Z,1.67
2022-09-17T22:36:44.178Z,2.30
2022-09-17T22:39:12.440Z,1.97
2022-09-17T22:41:45.333Z,1.63
2022-09-17T22:44:15.689Z,2.00
2022-09-17T22:46:47.209Z,1.57
2022-09-17T22:49:16.192Z,1.30
2022-09-17T22:51:46.595Z,1.50
2022-09-17T22:54:16.575Z,1.60
2022-09-17T22:56:45.255Z,2.10
2022-09-17T22:59:13.552Z,2.10
2022-09-17T23:01:42.718Z,1.50
2022-09-17T23:04:12.561Z,1.90
2022-09-17T23:06:42.485Z,1.80
2022-09-17T23:09:12.714Z,2.00
2022-09-17T23:11:41.470Z,1.87
2022-09-17T23:14:12.182Z,1.70
2022-09-17T23:16:41.926Z,1.90
2022-09-17T23:19:10.607Z,1.40
2022-09-17T23:21:40.727Z,1.53
2022-09-17T23:24:09.677Z,2.40
2022-09-17T23:26:37.947Z,1.60
2022-09-17T23:29:06.287Z,1.83
2022-09-17T23:31:35.862Z,1.67
2022-09-17T23:34:05.488Z,1.43
2022-09-17T23:36:36.128Z,1.70
2022-09-17T23:39:07.357Z,1.70
2022-09-17T23:41:37.231Z,1.50
2022-09-17T23:44:12.152Z,1.40
2022-09-17T23:46:42.981Z,1.40
2022-09-17T23:49:12.546Z,1.70
2022-09-17T23:51:41.149Z,1.50
2022-09-17T23:54:10.813Z,1.50
2022-09-17T23:56:38.953Z,1.53
2022-09-17T23:59:08.428Z,1.60
